Time;durP1;ratioP1;P1;durP2;ratioP2;P2;SDS_P1;SDS_P2;PMS_P1;PMS_P2;Temp;Humidity;BMP_temperature;BMP_pressure;BME280_temperature;BME280_humidity;BME280_pressure;Samples;Min_cycle;Max_cycle;Signal;HPM_P1;HPM_P2
2023/08/23 00:00:05;;;;;;;;;;;19.70;70.40;;;;;;5093243;28;19961;-38
2023/08/23 00:02:30;;;;;;;;;;;19.70;70.40;;;;;;5092973;28;19908;-38
2023/08/23 00:04:56;;;;;;;;;;;19.60;70.40;;;;;;5093064;28;20023;-37
2023/08/23 00:07:21;;;;;;;;;;;19.60;70.50;;;;;;5093004;28;19912;-39
2023/08/23 00:09:47;;;;;;;;;;;19.60;70.50;;;;;;5092928;28;19957;-37
2023/08/23 00:12:12;;;;;;;;;;;19.60;70.60;;;;;;5092897;28;19908;-36
2023/08/23 00:14:38;;;;;;;;;;;19.60;70.60;;;;;;5091460;28;20356;-37
2023/08/23 00:17:04;;;;;;;;;;;19.60;71.40;;;;;;5092595;28;19915;-39
2023/08/23 00:19:29;;;;;;;;;;;19.50;70.80;;;;;;5092439;28;19908;-33
2023/08/23 00:21:55;;;;;;;;;;;19.50;70.80;;;;;;5092690;28;20287;-39
2023/08/23 00:24:20;;;;;;;;;;;19.50;70.80;;;;;;5092469;28;19999;-37
2023/08/23 00:26:46;;;;;;;;;;;19.50;70.90;;;;;;5092343;28;20496;-37
2023/08/23 00:29:11;;;;;;;;;;;19.50;71.00;;;;;;5092419;28;19915;-38
2023/08/23 00:31:37;;;;;;;;;;;19.40;70.90;;;;;;5092842;28;19914;-36
2023/08/23 00:34:02;;;;;;;;;;;19.40;71.70;;;;;;5092459;28;19908;-38
2023/08/23 00:36:28;;;;;;;;;;;19.40;71.20;;;;;;5092642;28;19915;-36
2023/08/23 00:38:55;;;;;;;;;;;19.30;71.20;;;;;;5092262;28;19912;-38
2023/08/23 00:41:21;;;;;;;;;;;19.30;71.90;;;;;;5092456;28;20274;-38
2023/08/23 00:43:46;;;;;;;;;;;19.30;71.40;;;;;;5092252;28;19908;-38
2023/08/23 00:46:12;;;;;;;;;;;19.30;71.40;;;;;;5092479;28;20314;-37
2023/08/23 00:48:38;;;;;;;;;;;19.30;71.50;;;;;;5091964;28;20011;-37
2023/08/23 00:51:03;;;;;;;;;;;19.20;71.60;;;;;;5092494;28;19943;-39
2023/08/23 00:53:29;;;;;;;;;;;19.30;71.60;;;;;;5092505;28;19912;-37
2023/08/23 00:55:54;;;;;;;;;;;19.20;71.70;;;;;;5092100;28;19909;-38
2023/08/23 00:58:20;;;;;;;;;;;19.20;71.80;;;;;;5093886;28;19944;-38
2023/08/23 01:00:47;;;;;;;;;;;19.10;71.80;;;;;;5096544;28;19955;-37
2023/08/23 01:03:12;;;;;;;;;;;19.10;71.80;;;;;;5096433;28;19908;-36
2023/08/23 01:05:46;;;;;;;;;;;19.10;71.80;;;;;;5096321;28;19923;-37
2023/08/23 01:08:22;;;;;;;;;;;19.10;71.90;;;;;;5096114;28;19912;-37
2023/08/23 01:10:49;;;;;;;;;;;19.10;71.90;;;;;;5096166;28;19962;-37
2023/08/23 01:13:27;;;;;;;;;;;19.10;71.90;;;;;;5096199;28;19908;-37
2023/08/23 01:15:54;;;;;;;;;;;19.10;72.00;;;;;;5096128;28;19915;-39
2023/08/23 01:18:20;;;;;;;;;;;19.10;72.00;;;;;;5095815;28;19919;-35
2023/08/23 01:20:47;;;;;;;;;;;19.10;72.10;;;;;;5095953;28;20337;-37
2023/08/23 01:23:14;;;;;;;;;;;19.00;72.10;;;;;;5095885;28;20363;-39
2023/08/23 01:25:57;;;;;;;;;;;19.00;72.20;;;;;;5094579;28;19912;-37
2023/08/23 01:28:23;;;;;;;;;;;19.00;72.30;;;;;;5094216;28;19912;-38
2023/08/23 01:30:49;;;;;;;;;;;19.00;72.30;;;;;;5095851;28;20323;-37
2023/08/23 01:33:26;;;;;;;;;;;19.00;72.30;;;;;;5095859;28;19908;-37
2023/08/23 01:36:04;;;;;;;;;;;19.00;72.30;;;;;;5095674;28;19947;-36
2023/08/23 01:38:30;;;;;;;;;;;19.00;72.40;;;;;;5095712;28;19916;-38
2023/08/23 01:40:56;;;;;;;;;;;19.00;72.40;;;;;;5095706;28;20386;-37
2023/08/23 01:43:22;;;;;;;;;;;19.00;72.40;;;;;;5095353;28;20013;-37
2023/08/23 01:45:47;;;;;;;;;;;19.00;72.50;;;;;;5095562;28;20275;-36
2023/08/23 01:48:13;;;;;;;;;;;19.00;72.50;;;;;;5095134;28;19912;-35
2023/08/23 01:50:39;;;;;;;;;;;19.00;72.60;;;;;;5095346;28;19919;-37
2023/08/23 01:53:05;;;;;;;;;;;19.00;72.60;;;;;;5095731;28;19916;-36
2023/08/23 01:55:30;;;;;;;;;;;19.00;72.60;;;;;;5095303;28;19908;-37
2023/08/23 01:57:56;;;;;;;;;;;18.90;72.60;;;;;;5095156;28;19908;-38
2023/08/23 02:00:21;;;;;;;;;;;18.90;72.60;;;;;;5095084;28;19908;-36
2023/08/23 02:02:47;;;;;;;;;;;19.00;72.70;;;;;;5094758;28;19912;-37
2023/08/23 02:05:12;;;;;;;;;;;18.90;72.70;;;;;;5094980;28;20388;-33
2023/08/23 02:07:38;;;;;;;;;;;18.90;72.70;;;;;;5095028;28;19939;-36
2023/08/23 02:10:03;;;;;;;;;;;18.90;72.80;;;;;;5094067;28;20343;-37
2023/08/23 02:12:29;;;;;;;;;;;18.90;72.80;;;;;;5095087;28;19919;-37
2023/08/23 02:14:54;;;;;;;;;;;18.90;72.90;;;;;;5095001;28;20403;-37
2023/08/23 02:17:20;;;;;;;;;;;18.80;72.90;;;;;;5093427;28;19915;-36
2023/08/23 02:19:45;;;;;;;;;;;18.80;73.00;;;;;;5094826;28;19908;-37
2023/08/23 02:22:10;;;;;;;;;;;18.80;73.10;;;;;;5094874;28;19915;-38
2023/08/23 02:24:36;;;;;;;;;;;18.70;73.10;;;;;;5095117;28;19908;-38
2023/08/23 02:27:01;;;;;;;;;;;18.70;73.20;;;;;;5094492;28;19994;-35
2023/08/23 02:29:27;;;;;;;;;;;18.70;73.20;;;;;;5095056;28;19931;-37
2023/08/23 02:31:52;;;;;;;;;;;18.70;73.30;;;;;;5094575;28;19958;-37
2023/08/23 02:34:18;;;;;;;;;;;18.70;73.30;;;;;;5094677;28;19908;-38
2023/08/23 02:36:43;;;;;;;;;;;18.60;73.30;;;;;;5094498;28;19908;-37
2023/08/23 02:39:09;;;;;;;;;;;18.60;73.40;;;;;;5094538;28;19916;-38
2023/08/23 02:41:34;;;;;;;;;;;18.50;73.40;;;;;;5094339;28;19915;-36
2023/08/23 02:44:00;;;;;;;;;;;18.50;73.40;;;;;;5094344;28;19915;-37
2023/08/23 02:46:25;;;;;;;;;;;18.50;73.50;;;;;;5094163;28;19908;-37
2023/08/23 02:48:51;;;;;;;;;;;18.50;73.70;;;;;;5094033;28;19908;-36
2023/08/23 02:51:16;;;;;;;;;;;18.40;73.60;;;;;;5094105;28;19908;-37
2023/08/23 02:53:42;;;;;;;;;;;18.40;73.70;;;;;;5094210;28;19915;-37
2023/08/23 02:56:07;;;;;;;;;;;18.40;73.80;;;;;;5094479;28;19931;-38
2023/08/23 02:58:33;;;;;;;;;;;18.40;73.70;;;;;;5094026;28;19919;-37
2023/08/23 03:00:59;;;;;;;;;;;18.40;73.80;;;;;;5094018;28;19915;-38
2023/08/23 03:03:25;;;;;;;;;;;18.40;73.90;;;;;;5094037;28;19981;-36
2023/08/23 03:05:52;;;;;;;;;;;18.40;74.00;;;;;;5093977;28;19920;-37
2023/08/23 03:08:18;;;;;;;;;;;18.40;74.00;;;;;;5093635;28;19919;-37
2023/08/23 03:10:43;;;;;;;;;;;18.40;74.00;;;;;;5094145;28;19912;-37
2023/08/23 03:13:09;;;;;;;;;;;18.30;73.90;;;;;;5093838;28;20440;-37
2023/08/23 03:15:34;;;;;;;;;;;18.30;73.90;;;;;;5093945;28;19931;-37
2023/08/23 03:18:00;;;;;;;;;;;18.40;73.90;;;;;;5093546;28;19908;-36
2023/08/23 03:20:25;;;;;;;;;;;18.40;73.90;;;;;;5093347;28;19908;-36
2023/08/23 03:22:50;;;;;;;;;;;18.40;73.90;;;;;;5093601;28;20371;-48
2023/08/23 03:25:16;;;;;;;;;;;18.40;73.80;;;;;;5093483;28;19908;-39
2023/08/23 03:27:42;;;;;;;;;;;18.40;73.90;;;;;;5093281;28;19912;-38
2023/08/23 03:30:07;;;;;;;;;;;18.40;74.00;;;;;;5093481;28;19954;-37
2023/08/23 03:32:33;;;;;;;;;;;18.40;74.00;;;;;;5093299;28;19908;-36
2023/08/23 03:34:58;;;;;;;;;;;18.40;74.00;;;;;;5093366;28;19919;-36
2023/08/23 03:37:24;;;;;;;;;;;18.40;74.00;;;;;;5093172;28;19962;-35
2023/08/23 03:39:49;;;;;;;;;;;18.30;74.00;;;;;;5093233;28;19908;-37
2023/08/23 03:42:15;;;;;;;;;;;18.30;74.10;;;;;;5092999;28;19916;-36
2023/08/23 03:44:40;;;;;;;;;;;18.30;74.10;;;;;;5093181;28;19908;-37
2023/08/23 03:47:06;;;;;;;;;;;18.30;74.20;;;;;;5093033;28;19912;-37
2023/08/23 03:49:31;;;;;;;;;;;18.30;74.30;;;;;;5092907;28;19908;-34
2023/08/23 03:51:56;;;;;;;;;;;18.20;74.20;;;;;;5092963;28;19908;-38
2023/08/23 03:54:22;;;;;;;;;;;18.20;74.30;;;;;;5092989;28;19909;-37
2023/08/23 03:56:47;;;;;;;;;;;18.20;74.40;;;;;;5092827;28;19909;-38
2023/08/23 03:59:13;;;;;;;;;;;18.10;74.40;;;;;;5092963;28;19939;-35
2023/08/23 04:01:38;;;;;;;;;;;18.10;74.40;;;;;;5093006;28;20004;-44
2023/08/23 04:04:04;;;;;;;;;;;18.10;74.40;;;;;;5092935;28;19999;-42
2023/08/23 04:06:29;;;;;;;;;;;18.10;74.50;;;;;;5092608;28;19943;-38
2023/08/23 04:08:55;;;;;;;;;;;18.10;74.50;;;;;;5092619;28;19954;-35
2023/08/23 04:11:20;;;;;;;;;;;18.10;74.60;;;;;;5092881;28;19908;-38
2023/08/23 04:13:46;;;;;;;;;;;18.00;74.50;;;;;;5092701;28;19908;-38
2023/08/23 04:16:11;;;;;;;;;;;18.00;74.60;;;;;;5092814;28;19934;-51
2023/08/23 04:18:37;;;;;;;;;;;18.00;74.60;;;;;;5092328;28;19908;-38
2023/08/23 04:21:02;;;;;;;;;;;18.00;74.60;;;;;;5091237;28;19908;-38
2023/08/23 04:23:28;;;;;;;;;;;18.00;74.60;;;;;;5092493;28;19908;-37
2023/08/23 04:25:53;;;;;;;;;;;18.00;74.70;;;;;;5092828;28;20351;-37
2023/08/23 04:28:19;;;;;;;;;;;18.00;74.70;;;;;;5092227;28;20325;-44
2023/08/23 04:30:44;;;;;;;;;;;18.00;74.70;;;;;;5092449;28;19915;-35
2023/08/23 04:33:10;;;;;;;;;;;18.00;74.80;;;;;;5092002;28;20057;-38
2023/08/23 04:35:36;;;;;;;;;;;18.00;74.70;;;;;;5092368;28;20382;-35
2023/08/23 04:38:01;;;;;;;;;;;18.00;74.80;;;;;;5092475;28;20267;-39
2023/08/23 04:40:28;;;;;;;;;;;18.00;74.80;;;;;;5092412;28;19908;-37
2023/08/23 04:42:53;;;;;;;;;;;18.00;74.80;;;;;;5092322;28;20213;-39
2023/08/23 04:45:19;;;;;;;;;;;18.00;74.90;;;;;;5092227;28;19911;-36
2023/08/23 04:47:44;;;;;;;;;;;18.00;74.90;;;;;;5092030;28;19973;-36
2023/08/23 04:50:09;;;;;;;;;;;18.10;75.00;;;;;;5091933;28;19946;-38
2023/08/23 04:52:35;;;;;;;;;;;18.10;75.00;;;;;;5092200;28;19908;-37
2023/08/23 04:55:01;;;;;;;;;;;18.00;75.00;;;;;;5090922;28;19908;-36
2023/08/23 04:57:26;;;;;;;;;;;18.00;75.10;;;;;;5091965;28;19908;-38
2023/08/23 04:59:52;;;;;;;;;;;18.00;75.10;;;;;;5092111;28;19931;-37
2023/08/23 05:02:18;;;;;;;;;;;18.10;75.20;;;;;;5091770;28;19908;-37
2023/08/23 05:04:44;;;;;;;;;;;18.10;75.20;;;;;;5091691;28;20320;-37
2023/08/23 05:07:09;;;;;;;;;;;18.10;75.20;;;;;;5091555;28;19916;-37
2023/08/23 05:09:34;;;;;;;;;;;18.10;75.20;;;;;;5091836;28;19941;-42
2023/08/23 05:12:00;;;;;;;;;;;18.20;75.20;;;;;;5091778;28;19955;-39
2023/08/23 05:14:25;;;;;;;;;;;18.20;75.20;;;;;;5090507;28;19909;-36
2023/08/23 05:16:51;;;;;;;;;;;18.20;75.20;;;;;;5091599;28;19908;-38
2023/08/23 05:19:16;;;;;;;;;;;18.30;75.20;;;;;;5091614;28;19912;-32
2023/08/23 05:21:42;;;;;;;;;;;18.30;75.20;;;;;;5091569;28;19961;-38
2023/08/23 05:24:07;;;;;;;;;;;18.30;75.20;;;;;;5091622;28;19908;-37
2023/08/23 05:26:33;;;;;;;;;;;18.30;75.20;;;;;;5091664;28;19913;-38
2023/08/23 05:28:58;;;;;;;;;;;18.40;75.30;;;;;;5091444;28;20098;-37
2023/08/23 05:31:24;;;;;;;;;;;18.40;75.20;;;;;;5091486;28;20271;-38
2023/08/23 05:33:49;;;;;;;;;;;18.30;75.10;;;;;;5091412;28;19912;-37
2023/08/23 05:36:15;;;;;;;;;;;18.40;75.10;;;;;;5091546;28;20364;-37
2023/08/23 05:38:40;;;;;;;;;;;18.40;75.10;;;;;;5091299;28;19969;-36
2023/08/23 05:41:05;;;;;;;;;;;18.50;75.10;;;;;;5091710;28;19908;-36
2023/08/23 05:43:31;;;;;;;;;;;18.50;75.10;;;;;;5091448;28;19908;-37
2023/08/23 05:45:57;;;;;;;;;;;18.50;75.00;;;;;;5094137;28;19973;-36
2023/08/23 05:48:23;;;;;;;;;;;18.60;75.00;;;;;;5095011;28;19912;-37
2023/08/23 05:50:48;;;;;;;;;;;18.60;74.80;;;;;;5094888;28;20002;-35
2023/08/23 05:53:20;;;;;;;;;;;18.70;74.90;;;;;;5095251;28;19908;-35
2023/08/23 05:55:49;;;;;;;;;;;18.70;75.40;;;;;;5095131;28;19931;-37
2023/08/23 05:58:15;;;;;;;;;;;18.70;74.70;;;;;;5094933;28;20356;-37
2023/08/23 06:00:41;;;;;;;;;;;18.80;74.60;;;;;;5095039;28;19912;-37
2023/08/23 06:03:07;;;;;;;;;;;18.90;74.60;;;;;;5093979;28;20377;-42
2023/08/23 06:05:32;;;;;;;;;;;18.80;74.50;;;;;;5094816;28;19920;-37
2023/08/23 06:07:58;;;;;;;;;;;18.90;74.50;;;;;;5095154;28;20265;-37
2023/08/23 06:10:23;;;;;;;;;;;19.00;74.40;;;;;;5094975;28;19912;-37
2023/08/23 06:12:49;;;;;;;;;;;19.00;74.30;;;;;;5094920;28;19950;-36
2023/08/23 06:15:15;;;;;;;;;;;19.00;74.30;;;;;;5094734;28;19909;-37
2023/08/23 06:17:40;;;;;;;;;;;19.10;74.20;;;;;;5094441;28;19931;-36
2023/08/23 06:20:06;;;;;;;;;;;19.10;74.10;;;;;;5094407;28;19912;-39
2023/08/23 06:22:32;;;;;;;;;;;19.20;74.10;;;;;;5093350;28;20252;-36
2023/08/23 06:24:57;;;;;;;;;;;19.20;74.00;;;;;;5094818;28;20021;-35
2023/08/23 06:27:23;;;;;;;;;;;19.20;73.90;;;;;;5094379;28;19999;-36
2023/08/23 06:29:48;;;;;;;;;;;19.20;73.90;;;;;;5094697;28;19915;-35
2023/08/23 06:32:14;;;;;;;;;;;19.30;73.90;;;;;;5094612;28;19908;-37
2023/08/23 06:34:39;;;;;;;;;;;19.40;73.90;;;;;;5093299;28;19908;-34
2023/08/23 06:37:05;;;;;;;;;;;19.40;73.80;;;;;;5094377;28;19944;-36
2023/08/23 06:39:30;;;;;;;;;;;19.40;73.70;;;;;;5093058;28;19948;-34
2023/08/23 06:41:56;;;;;;;;;;;19.50;73.80;;;;;;5094236;28;19915;-50
2023/08/23 06:44:21;;;;;;;;;;;19.50;73.70;;;;;;5094244;28;20368;-35
2023/08/23 06:46:47;;;;;;;;;;;19.50;73.60;;;;;;5094174;28;19912;-36
2023/08/23 06:49:12;;;;;;;;;;;19.50;73.60;;;;;;5094018;28;19934;-36
2023/08/23 06:51:38;;;;;;;;;;;19.60;73.60;;;;;;5094410;28;20356;-36
2023/08/23 06:54:04;;;;;;;;;;;19.60;73.50;;;;;;5094091;28;19912;-36
2023/08/23 06:56:29;;;;;;;;;;;19.60;73.50;;;;;;5093622;28;19918;-37
2023/08/23 06:58:55;;;;;;;;;;;19.70;74.10;;;;;;5093833;28;20252;-35
2023/08/23 07:01:21;;;;;;;;;;;19.70;73.40;;;;;;5092715;28;20021;-36
2023/08/23 07:03:47;;;;;;;;;;;19.70;73.40;;;;;;5092798;28;19948;-36
2023/08/23 07:06:13;;;;;;;;;;;19.80;73.30;;;;;;5093766;28;20318;-36
2023/08/23 07:08:42;;;;;;;;;;;19.80;73.30;;;;;;5092685;28;19951;-38
2023/08/23 07:11:08;;;;;;;;;;;19.80;73.20;;;;;;5093993;28;19908;-37
2023/08/23 07:13:35;;;;;;;;;;;19.90;73.30;;;;;;5093732;28;20473;-36
2023/08/23 07:16:00;;;;;;;;;;;19.90;73.10;;;;;;5093876;28;19912;-38
2023/08/23 07:18:26;;;;;;;;;;;19.90;73.10;;;;;;5093578;28;20321;-36
2023/08/23 07:20:51;;;;;;;;;;;20.00;73.10;;;;;;5093631;28;19908;-36
2023/08/23 07:23:17;;;;;;;;;;;20.00;73.00;;;;;;5093571;28;19912;-39
2023/08/23 07:25:44;;;;;;;;;;;20.10;73.00;;;;;;5093674;28;19908;-36
2023/08/23 07:28:09;;;;;;;;;;;20.10;72.90;;;;;;5093598;28;19916;-38
2023/08/23 07:30:35;;;;;;;;;;;20.20;72.90;;;;;;5093461;28;20316;-36
2023/08/23 07:33:00;;;;;;;;;;;20.20;72.70;;;;;;5093540;28;20359;-37
2023/08/23 07:35:26;;;;;;;;;;;20.30;72.70;;;;;;5092088;28;19908;-36
2023/08/23 07:37:51;;;;;;;;;;;20.30;72.60;;;;;;5093094;28;19915;-38
2023/08/23 07:40:16;;;;;;;;;;;20.40;72.60;;;;;;5093193;28;19908;-35
2023/08/23 07:42:42;;;;;;;;;;;20.40;72.50;;;;;;5093117;28;19965;-36
2023/08/23 07:45:08;;;;;;;;;;;20.40;72.40;;;;;;5093231;28;20367;-37
2023/08/23 07:47:33;;;;;;;;;;;20.50;72.40;;;;;;5092842;28;20360;-36
2023/08/23 07:49:59;;;;;;;;;;;20.50;72.30;;;;;;5092919;28;19919;-37
2023/08/23 07:52:24;;;;;;;;;;;20.50;72.20;;;;;;5093109;28;20352;-36
2023/08/23 07:54:50;;;;;;;;;;;20.60;72.20;;;;;;5093013;28;19914;-38
2023/08/23 07:57:15;;;;;;;;;;;20.60;72.10;;;;;;5092836;28;19908;-36
2023/08/23 07:59:41;;;;;;;;;;;20.70;72.00;;;;;;5093019;28;20427;-37
2023/08/23 08:02:06;;;;;;;;;;;20.80;72.00;;;;;;5092859;28;20365;-38
2023/08/23 08:04:32;;;;;;;;;;;20.80;71.90;;;;;;5092865;28;20360;-37
2023/08/23 08:06:57;;;;;;;;;;;20.80;71.80;;;;;;5091918;28;19974;-36
2023/08/23 08:09:23;;;;;;;;;;;20.90;71.70;;;;;;5092496;28;20336;-34
2023/08/23 08:11:48;;;;;;;;;;;21.00;71.70;;;;;;5092591;28;19908;-35
2023/08/23 08:14:14;;;;;;;;;;;21.00;71.60;;;;;;5092658;28;19962;-36
2023/08/23 08:16:39;;;;;;;;;;;21.10;71.60;;;;;;5092731;28;19915;-37
2023/08/23 08:19:05;;;;;;;;;;;21.00;71.80;;;;;;5092578;28;19909;-36
2023/08/23 08:21:30;;;;;;;;;;;21.10;71.60;;;;;;5092476;28;19931;-37
2023/08/23 08:23:56;;;;;;;;;;;21.10;71.50;;;;;;5092660;28;20001;-37
2023/08/23 08:26:22;;;;;;;;;;;21.20;71.50;;;;;;5092511;28;19915;-39
2023/08/23 08:28:47;;;;;;;;;;;21.20;71.40;;;;;;5092373;28;19912;-38
2023/08/23 08:31:13;;;;;;;;;;;21.30;71.40;;;;;;5091303;28;20351;-38
2023/08/23 08:33:39;;;;;;;;;;;21.30;71.20;;;;;;5092418;28;19937;-37
2023/08/23 08:36:04;;;;;;;;;;;21.40;71.20;;;;;;5092506;28;20241;-38
2023/08/23 08:38:30;;;;;;;;;;;21.50;71.10;;;;;;5092253;28;19987;-35
2023/08/23 08:40:55;;;;;;;;;;;21.50;70.90;;;;;;5092435;28;19915;-34
2023/08/23 08:43:21;;;;;;;;;;;21.60;70.90;;;;;;5092080;28;19916;-35
2023/08/23 08:45:47;;;;;;;;;;;21.60;70.80;;;;;;5092434;28;19908;-34
2023/08/23 08:48:12;;;;;;;;;;;21.70;70.80;;;;;;5092011;28;19912;-34
2023/08/23 08:50:39;;;;;;;;;;;21.80;70.60;;;;;;5092186;28;20010;-33
2023/08/23 08:53:07;;;;;;;;;;;21.80;70.50;;;;;;5092468;28;19908;-34
2023/08/23 08:55:32;;;;;;;;;;;21.90;70.40;;;;;;5092186;28;19908;-34
2023/08/23 08:57:58;;;;;;;;;;;22.00;70.30;;;;;;5092153;28;19908;-34
2023/08/23 09:00:25;;;;;;;;;;;22.00;70.20;;;;;;5092253;28;19947;-35
2023/08/23 09:02:52;;;;;;;;;;;22.10;70.10;;;;;;5092271;28;19912;-33
2023/08/23 09:05:19;;;;;;;;;;;22.10;70.00;;;;;;5092077;28;19999;-33
2023/08/23 09:07:45;;;;;;;;;;;22.10;69.90;;;;;;5092089;28;19912;-34
2023/08/23 09:10:10;;;;;;;;;;;22.20;69.90;;;;;;5092267;28;19908;-35
2023/08/23 09:12:36;;;;;;;;;;;22.20;69.70;;;;;;5092105;28;19908;-36
2023/08/23 09:15:04;;;;;;;;;;;22.30;69.70;;;;;;5092139;28;19915;-34
2023/08/23 09:17:33;;;;;;;;;;;22.30;69.50;;;;;;5091869;28;19912;-34
2023/08/23 09:19:58;;;;;;;;;;;22.40;69.40;;;;;;5094895;28;20368;-35
2023/08/23 09:22:24;;;;;;;;;;;22.40;69.10;;;;;;5096525;28;19908;-34
2023/08/23 09:24:49;;;;;;;;;;;22.50;68.60;;;;;;5096156;28;20379;-35
2023/08/23 09:27:15;;;;;;;;;;;22.50;68.30;;;;;;5096482;28;19919;-35
2023/08/23 09:29:42;;;;;;;;;;;22.60;68.40;;;;;;5095955;28;19938;-35
2023/08/23 09:32:08;;;;;;;;;;;22.60;68.00;;;;;;5096019;28;19969;-34
2023/08/23 09:34:33;;;;;;;;;;;22.70;67.90;;;;;;5095931;28;20375;-36
2023/08/23 09:37:06;;;;;;;;;;;22.70;67.70;;;;;;5095683;28;19919;-35
2023/08/23 09:39:31;;;;;;;;;;;22.80;67.50;;;;;;5094426;28;19909;-35
2023/08/23 09:42:03;;;;;;;;;;;22.80;67.30;;;;;;5095444;28;19915;-37
2023/08/23 09:44:46;;;;;;;;;;;22.90;67.20;;;;;;5095725;28;19908;-34
2023/08/23 09:47:20;;;;;;;;;;;22.90;67.10;;;;;;5095417;28;19941;-33
2023/08/23 09:49:47;;;;;;;;;;;23.00;66.80;;;;;;5095321;28;19914;-35
2023/08/23 09:52:13;;;;;;;;;;;23.00;66.30;;;;;;5095452;28;19915;-34
2023/08/23 09:54:58;;;;;;;;;;;23.10;66.00;;;;;;5095311;28;19912;-34
2023/08/23 09:57:24;;;;;;;;;;;23.10;65.80;;;;;;5095034;28;19983;-33
2023/08/23 09:59:50;;;;;;;;;;;23.20;65.80;;;;;;5095350;28;20372;-34
2023/08/23 10:02:18;;;;;;;;;;;23.20;65.90;;;;;;5095099;28;19908;-34
2023/08/23 10:04:44;;;;;;;;;;;23.20;65.00;;;;;;5095047;28;19911;-34
2023/08/23 10:07:15;;;;;;;;;;;23.30;64.60;;;;;;5095191;28;20397;-34
2023/08/23 10:09:41;;;;;;;;;;;23.30;64.60;;;;;;5095235;28;19908;-34
2023/08/23 10:12:10;;;;;;;;;;;23.30;64.60;;;;;;5095200;28;19999;-35
2023/08/23 10:14:40;;;;;;;;;;;23.40;64.50;;;;;;5095203;28;19947;-35
2023/08/23 10:17:06;;;;;;;;;;;23.40;64.40;;;;;;5095261;28;20275;-35
2023/08/23 10:19:32;;;;;;;;;;;23.50;64.60;;;;;;5093609;28;19953;-34
2023/08/23 10:21:58;;;;;;;;;;;23.60;64.60;;;;;;5095278;28;19908;-35
2023/08/23 10:24:27;;;;;;;;;;;23.60;64.40;;;;;;5094928;28;19908;-37
2023/08/23 10:26:52;;;;;;;;;;;23.70;64.30;;;;;;5094796;28;19912;-35
2023/08/23 10:29:28;;;;;;;;;;;23.80;64.10;;;;;;5094845;28;19908;-35
2023/08/23 10:31:54;;;;;;;;;;;23.80;64.20;;;;;;5093941;28;19908;-34
2023/08/23 10:34:26;;;;;;;;;;;23.80;64.10;;;;;;5094943;28;20344;-37
2023/08/23 10:36:53;;;;;;;;;;;23.80;64.10;;;;;;5094786;28;20001;-35
2023/08/23 10:39:20;;;;;;;;;;;23.90;63.90;;;;;;5094655;28;19961;-35
2023/08/23 10:41:46;;;;;;;;;;;23.90;63.60;;;;;;5094533;28;19914;-34
2023/08/23 10:44:15;;;;;;;;;;;23.90;63.70;;;;;;5094426;28;19912;-34
2023/08/23 10:46:44;;;;;;;;;;;24.00;63.70;;;;;;5094428;28;20429;-35
2023/08/23 10:49:11;;;;;;;;;;;24.00;63.40;;;;;;5094230;28;19951;-34
2023/08/23 10:51:41;;;;;;;;;;;24.10;63.30;;;;;;5094350;28;19908;-35
2023/08/23 10:54:10;;;;;;;;;;;24.20;63.10;;;;;;5094322;28;19912;-34
2023/08/23 10:56:35;;;;;;;;;;;24.20;63.10;;;;;;5094518;28;19916;-34
2023/08/23 10:59:01;;;;;;;;;;;24.30;62.90;;;;;;5094109;28;19909;-35
2023/08/23 11:01:27;;;;;;;;;;;24.30;61.30;;;;;;5093959;28;19955;-34
2023/08/23 11:03:53;;;;;;;;;;;24.30;61.00;;;;;;5094153;28;19908;-34
2023/08/23 11:06:18;;;;;;;;;;;24.40;61.20;;;;;;5093917;28;19927;-35
2023/08/23 11:08:44;;;;;;;;;;;24.40;60.70;;;;;;5093921;28;20401;-34
2023/08/23 11:11:11;;;;;;;;;;;24.40;59.60;;;;;;5094102;28;19912;-36
2023/08/23 11:13:36;;;;;;;;;;;24.50;59.40;;;;;;5093954;28;19912;-36
2023/08/23 11:16:02;;;;;;;;;;;24.50;59.70;;;;;;5093941;28;20325;-36
2023/08/23 11:18:28;;;;;;;;;;;24.60;59.20;;;;;;5093687;28;19915;-35
2023/08/23 11:20:53;;;;;;;;;;;24.70;59.10;;;;;;5093686;28;19955;-35
2023/08/23 11:23:19;;;;;;;;;;;24.70;59.00;;;;;;5093750;28;19912;-35
2023/08/23 11:25:45;;;;;;;;;;;24.80;58.50;;;;;;5092052;28;19908;-34
2023/08/23 11:28:12;;;;;;;;;;;24.80;58.70;;;;;;5093507;28;19919;-36
2023/08/23 11:30:38;;;;;;;;;;;24.90;58.00;;;;;;5093680;28;19957;-35
2023/08/23 11:33:04;;;;;;;;;;;25.00;57.90;;;;;;5093636;28;20010;-35
2023/08/23 11:35:29;;;;;;;;;;;25.10;57.20;;;;;;5093591;28;19918;-35
2023/08/23 11:37:56;;;;;;;;;;;25.10;57.30;;;;;;5093617;28;19919;-37
2023/08/23 11:40:24;;;;;;;;;;;25.20;57.60;;;;;;5093438;28;19915;-36
2023/08/23 11:42:52;;;;;;;;;;;25.30;57.50;;;;;;5093417;28;19935;-36
2023/08/23 11:45:18;;;;;;;;;;;25.40;57.50;;;;;;5093343;28;19908;-35
2023/08/23 11:47:43;;;;;;;;;;;25.50;57.30;;;;;;5093210;28;20378;-35
2023/08/23 11:50:09;;;;;;;;;;;25.50;57.00;;;;;;5093159;28;19919;-35
2023/08/23 11:52:34;;;;;;;;;;;25.60;56.70;;;;;;5093292;28;20360;-34
2023/08/23 11:55:03;;;;;;;;;;;25.70;57.20;;;;;;5093179;28;19908;-36
2023/08/23 11:57:31;;;;;;;;;;;25.70;56.00;;;;;;5093116;28;19981;-39
2023/08/23 11:59:56;;;;;;;;;;;25.70;55.80;;;;;;5093049;28;19958;-34
2023/08/23 12:02:21;;;;;;;;;;;25.80;55.10;;;;;;5093125;28;19909;-36
2023/08/23 12:04:47;;;;;;;;;;;25.80;55.30;;;;;;5092929;28;19908;-35
2023/08/23 12:07:13;;;;;;;;;;;25.90;54.80;;;;;;5092788;28;19916;-34
2023/08/23 12:09:41;;;;;;;;;;;26.00;54.80;;;;;;5092882;28;19954;-35
2023/08/23 12:12:07;;;;;;;;;;;26.10;54.90;;;;;;5092934;28;19908;-33
2023/08/23 12:14:32;;;;;;;;;;;26.10;55.10;;;;;;5092721;28;20360;-37
2023/08/23 12:16:58;;;;;;;;;;;26.20;55.30;;;;;;5092586;28;19912;-34
2023/08/23 12:19:25;;;;;;;;;;;26.30;55.00;;;;;;5091655;28;21563;-36
2023/08/23 12:21:51;;;;;;;;;;;26.40;54.70;;;;;;5092553;28;19999;-36
2023/08/23 12:24:17;;;;;;;;;;;26.50;54.70;;;;;;5092566;28;19915;-34
2023/08/23 12:26:43;;;;;;;;;;;26.50;54.60;;;;;;5092500;28;19915;-35
2023/08/23 12:29:08;;;;;;;;;;;26.60;54.40;;;;;;5090992;28;20373;-35
2023/08/23 12:31:34;;;;;;;;;;;26.60;54.60;;;;;;5092420;28;20022;-43
2023/08/23 12:33:59;;;;;;;;;;;26.70;54.30;;;;;;5092539;28;19908;-33
2023/08/23 12:36:25;;;;;;;;;;;26.90;54.30;;;;;;5092582;28;19908;-36
2023/08/23 12:38:51;;;;;;;;;;;26.90;53.90;;;;;;5092318;28;19909;-30
2023/08/23 12:41:17;;;;;;;;;;;27.00;54.00;;;;;;5092429;28;19915;-34
2023/08/23 12:43:42;;;;;;;;;;;27.00;53.80;;;;;;5092249;28;19908;-29
2023/08/23 12:46:08;;;;;;;;;;;27.10;53.80;;;;;;5092314;28;19908;-33
2023/08/23 12:48:33;;;;;;;;;;;27.20;53.20;;;;;;5091993;28;20379;-39
2023/08/23 12:50:59;;;;;;;;;;;27.20;53.10;;;;;;5092195;28;19919;-30
2023/08/23 12:53:24;;;;;;;;;;;27.30;52.60;;;;;;5093339;28;19995;-41
2023/08/23 12:55:51;;;;;;;;;;;27.30;52.60;;;;;;5099002;28;20356;-35
2023/08/23 12:58:17;;;;;;;;;;;27.40;52.70;;;;;;5098883;28;19908;-31
2023/08/23 13:00:42;;;;;;;;;;;27.50;52.50;;;;;;5099040;28;19915;-35
2023/08/23 13:03:08;;;;;;;;;;;27.50;52.10;;;;;;5099092;28;19908;-36
2023/08/23 13:05:33;;;;;;;;;;;27.70;51.60;;;;;;5098785;28;19920;-30
2023/08/23 13:07:59;;;;;;;;;;;27.70;51.60;;;;;;5098845;28;20012;-36
2023/08/23 13:10:24;;;;;;;;;;;27.70;51.70;;;;;;5098857;28;20380;-34
2023/08/23 13:12:50;;;;;;;;;;;27.80;51.90;;;;;;5098943;28;20333;-30
2023/08/23 13:15:16;;;;;;;;;;;27.90;51.10;;;;;;5098771;28;19912;-30
2023/08/23 13:17:42;;;;;;;;;;;27.90;50.80;;;;;;5098744;28;20390;-32
2023/08/23 13:20:09;;;;;;;;;;;27.90;50.80;;;;;;5098717;28;19912;-30
2023/08/23 13:22:35;;;;;;;;;;;27.90;50.90;;;;;;5098920;28;19947;-31
2023/08/23 13:25:00;;;;;;;;;;;27.90;50.90;;;;;;5098725;28;19919;-31
2023/08/23 13:27:26;;;;;;;;;;;28.10;50.60;;;;;;5098518;28;19939;-30
2023/08/23 13:29:51;;;;;;;;;;;28.20;50.80;;;;;;5098736;28;19935;-33
2023/08/23 13:32:17;;;;;;;;;;;28.30;50.70;;;;;;5098681;28;19918;-31
2023/08/23 13:34:43;;;;;;;;;;;28.40;50.40;;;;;;5098771;28;19912;-38
2023/08/23 13:37:08;;;;;;;;;;;28.50;50.60;;;;;;5098567;28;19958;-37
2023/08/23 13:39:35;;;;;;;;;;;28.50;50.30;;;;;;5098667;28;19919;-31
2023/08/23 13:42:00;;;;;;;;;;;28.60;50.30;;;;;;5098681;28;20390;-33
2023/08/23 13:44:26;;;;;;;;;;;28.70;50.50;;;;;;5098598;28;19912;-37
2023/08/23 13:46:51;;;;;;;;;;;28.80;49.90;;;;;;5098422;28;20399;-37
2023/08/23 13:49:17;;;;;;;;;;;28.90;50.00;;;;;;5098449;28;19920;-28
2023/08/23 13:51:42;;;;;;;;;;;28.90;50.20;;;;;;5098734;28;19912;-33
2023/08/23 13:54:08;;;;;;;;;;;29.00;50.00;;;;;;5098512;28;19946;-31
2023/08/23 13:56:34;;;;;;;;;;;29.20;49.80;;;;;;5098342;28;19957;-35
2023/08/23 13:58:59;;;;;;;;;;;29.20;49.20;;;;;;5098300;28;19916;-29
2023/08/23 14:01:25;;;;;;;;;;;29.20;49.40;;;;;;5098440;28;19918;-32
2023/08/23 14:03:51;;;;;;;;;;;29.20;49.60;;;;;;5098587;28;19946;-33
2023/08/23 14:06:17;;;;;;;;;;;29.30;49.10;;;;;;5094615;28;20281;-32
2023/08/23 14:08:42;;;;;;;;;;;29.40;49.30;;;;;;5094935;28;20404;-44